Time;durP1;ratioP1;P1;durP2;ratioP2;P2;SDS_P1;SDS_P2;PMS_P1;PMS_P2;Temp;Humidity;BMP_temperature;BMP_pressure;BME280_temperature;BME280_humidity;BME280_pressure;Samples;Min_cycle;Max_cycle;Signal;HPM_P1;HPM_P2
2022/04/23 00:01:03;;;;;;;;;19.25;17.75;;;;;14.47;54.92;99654.28;4970854;28;46495;-74
2022/04/23 00:03:29;;;;;;;;;21.00;17.00;;;;;14.45;54.98;99658.81;4972193;28;45429;-74
2022/04/23 00:05:54;;;;;;;;;21.00;17.50;;;;;14.51;55.37;99668.97;4971803;28;45667;-74
2022/04/23 00:08:19;;;;;;;;;27.00;20.50;;;;;14.48;55.54;99669.22;4971810;28;45552;-74
2022/04/23 00:10:45;;;;;;;;;24.00;21.75;;;;;14.47;55.58;99670.16;4966381;28;45743;-74
2022/04/23 00:13:10;;;;;;;;;21.50;16.75;;;;;14.45;55.48;99666.75;4970716;28;45548;-74
2022/04/23 00:15:39;;;;;;;;;19.25;19.00;;;;;14.42;55.54;99665.22;4971536;28;45556;-74
2022/04/23 00:18:08;;;;;;;;;21.00;19.50;;;;;14.34;55.73;99652.56;4971544;28;45348;-74
2022/04/23 00:20:34;;;;;;;;;28.00;19.75;;;;;14.23;55.16;99635.84;4969902;28;46002;-74
2022/04/23 00:23:00;;;;;;;;;19.25;18.75;;;;;14.25;55.81;99640.06;4970741;28;45667;-74
2022/04/23 00:25:26;;;;;;;;;21.75;20.75;;;;;14.24;55.72;99640.16;4973053;28;45492;-74
2022/04/23 00:27:51;;;;;;;;;17.25;16.00;;;;;14.31;55.61;99657.25;4971614;28;45633;-74
2022/04/23 00:30:17;;;;;;;;;20.00;17.00;;;;;14.17;55.99;99636.31;4971392;28;45347;-74
2022/04/23 00:32:42;;;;;;;;;26.25;20.25;;;;;14.25;56.31;99647.13;4971502;28;45470;-74
2022/04/23 00:35:12;;;;;;;;;23.25;18.25;;;;;14.28;56.09;99647.75;4970708;28;45283;-74
2022/04/23 00:37:38;;;;;;;;;24.25;18.75;;;;;14.20;55.96;99638.69;4969592;28;45467;-74
2022/04/23 00:40:06;;;;;;;;;22.75;19.75;;;;;14.24;56.51;99642.78;4965886;28;45474;-74
2022/04/23 00:42:32;;;;;;;;;21.50;16.75;;;;;14.12;56.34;99626.06;4965475;28;45422;-74
2022/04/23 00:44:57;;;;;;;;;21.00;16.50;;;;;14.13;56.01;99627.75;4970885;28;45505;-74
2022/04/23 00:47:22;;;;;;;;;26.00;25.00;;;;;14.13;56.61;99619.00;4971376;28;45595;-74
2022/04/23 00:49:48;;;;;;;;;16.75;14.00;;;;;14.21;55.90;99629.84;4971969;28;45450;-74
2022/04/23 00:52:13;;;;;;;;;20.75;18.25;;;;;14.12;56.47;99617.31;4972730;28;45427;-74
2022/04/23 00:54:39;;;;;;;;;20.75;19.00;;;;;14.20;56.73;99629.00;4970943;28;45584;-74
2022/04/23 00:57:05;;;;;;;;;19.25;17.50;;;;;14.12;56.47;99610.22;4970161;28;46308;-74
2022/04/23 00:59:31;;;;;;;;;18.75;17.25;;;;;14.07;56.62;99599.16;4971407;28;45823;-74
2022/04/23 01:01:56;;;;;;;;;19.50;17.25;;;;;14.05;56.54;99598.44;4971351;28;45404;-74
2022/04/23 01:04:21;;;;;;;;;21.50;18.50;;;;;14.04;56.85;99605.53;4973335;28;45528;-74
2022/04/23 01:06:47;;;;;;;;;19.50;19.00;;;;;14.03;56.51;99598.53;4970181;28;45580;-74
2022/04/23 01:09:12;;;;;;;;;20.25;18.25;;;;;14.13;57.10;99616.34;4971224;28;45491;-74
2022/04/23 01:11:39;;;;;;;;;21.50;20.50;;;;;14.05;56.58;99599.28;4970614;28;45713;-74
2022/04/23 01:14:04;;;;;;;;;23.50;21.50;;;;;14.01;56.72;99589.06;4955448;28;45573;-74
2022/04/23 01:16:30;;;;;;;;;22.00;18.25;;;;;13.99;56.27;99588.31;4972353;28;46208;-74
2022/04/23 01:18:55;;;;;;;;;25.25;22.25;;;;;14.01;56.98;99596.97;4969823;28;45442;-73
2022/04/23 01:21:21;;;;;;;;;28.00;22.00;;;;;13.97;56.73;99591.09;4970865;28;45466;-74
2022/04/23 01:23:53;;;;;;;;;24.75;21.00;;;;;13.89;56.78;99582.91;4970943;28;45367;-75
2022/04/23 01:26:29;;;;;;;;;22.75;20.75;;;;;13.89;57.35;99587.34;4970766;28;45503;-74
2022/04/23 01:28:56;;;;;;;;;24.00;21.25;;;;;13.97;57.10;99606.94;4970020;28;45500;-74
2022/04/23 01:31:21;;;;;;;;;23.25;21.50;;;;;13.90;57.15;99591.66;4971118;28;45457;-74
2022/04/23 01:33:47;;;;;;;;;23.50;23.50;;;;;13.86;57.20;99585.78;4970520;28;46413;-74
2022/04/23 01:36:14;;;;;;;;;24.50;22.75;;;;;13.81;57.55;99583.47;4970740;28;46607;-74
2022/04/23 01:38:41;;;;;;;;;26.00;20.75;;;;;13.90;56.99;99594.31;4970540;28;46215;-74
2022/04/23 01:41:07;;;;;;;;;24.25;19.00;;;;;13.87;57.84;99599.81;4953575;28;45491;-74
2022/04/23 01:43:32;;;;;;;;;27.75;25.00;;;;;13.73;57.18;99570.00;4971694;28;45510;-74
2022/04/23 01:45:57;;;;;;;;;24.00;19.00;;;;;13.72;57.42;99572.75;4970666;28;45551;-74
2022/04/23 01:48:23;;;;;;;;;23.25;20.75;;;;;13.72;58.04;99578.03;4968990;28;45499;-74
2022/04/23 01:50:50;;;;;;;;;27.25;22.00;;;;;13.71;57.82;99565.78;4970447;28;45361;-74
2022/04/23 01:53:15;;;;;;;;;26.25;20.50;;;;;13.67;58.24;99562.53;4969139;28;45426;-74
2022/04/23 01:55:41;;;;;;;;;27.00;23.25;;;;;13.79;58.06;99582.75;4971758;28;45362;-74
2022/04/23 01:58:06;;;;;;;;;28.50;20.25;;;;;13.73;57.91;99577.06;4959679;28;45363;-74
2022/04/23 02:00:32;;;;;;;;;24.00;20.00;;;;;13.69;58.29;99571.19;4964865;28;45379;-74
2022/04/23 02:02:57;;;;;;;;;23.75;21.25;;;;;13.69;58.12;99565.91;4969884;28;45593;-74
2022/04/23 02:05:22;;;;;;;;;31.00;23.25;;;;;13.66;58.20;99560.84;4970176;28;45495;-74
2022/04/23 02:07:48;;;;;;;;;25.50;18.75;;;;;13.67;57.79;99562.53;4971075;28;45461;-74
2022/04/23 02:10:15;;;;;;;;;19.75;19.25;;;;;13.66;57.81;99570.56;4971715;28;45514;-74
2022/04/23 02:12:41;;;;;;;;;23.25;21.00;;;;;13.71;58.04;99579.81;4970158;28;45963;-74
2022/04/23 02:15:07;;;;;;;;;28.00;23.75;;;;;13.70;58.34;99583.44;4968510;28;45541;-73
2022/04/23 02:17:37;;;;;;;;;27.00;21.25;;;;;13.67;58.28;99578.38;4969955;28;45372;-74
2022/04/23 02:20:05;;;;;;;;;20.25;16.50;;;;;13.65;58.24;99577.66;4970012;28;45737;-74
2022/04/23 02:22:30;;;;;;;;;20.25;19.50;;;;;13.64;58.06;99580.41;4972166;28;45230;-74
2022/04/23 02:24:56;;;;;;;;;26.25;23.00;;;;;13.61;58.17;99572.69;4970020;28;46123;-74
2022/04/23 02:27:23;;;;;;;;;26.25;21.00;;;;;13.58;58.65;99573.78;4969799;28;45944;-74
2022/04/23 02:29:48;;;;;;;;;24.00;20.00;;;;;13.56;58.45;99575.69;4968770;28;45488;-74
2022/04/23 02:32:13;;;;;;;;;21.50;18.75;;;;;13.55;58.76;99569.56;4968097;28;45391;-74
2022/04/23 02:34:39;;;;;;;;;22.00;18.75;;;;;13.52;58.26;99569.81;4971536;28;52331;-74
2022/04/23 02:37:07;;;;;;;;;21.25;19.75;;;;;13.49;58.38;99567.38;4968388;28;45431;-74
2022/04/23 02:39:32;;;;;;;;;25.50;22.00;;;;;13.47;58.69;99564.03;4969631;28;45417;-74
2022/04/23 02:41:58;;;;;;;;;26.75;23.25;;;;;13.47;58.68;99571.09;4969620;28;45288;-74
2022/04/23 02:44:23;;;;;;;;;26.75;23.00;;;;;13.44;58.62;99558.13;4969691;28;49091;-74
2022/04/23 02:46:48;;;;;;;;;26.33;21.67;;;;;13.42;58.84;99554.75;4972785;28;48879;-73
2022/04/23 02:49:14;;;;;;;;;20.00;19.33;;;;;13.39;58.90;99549.69;4970664;28;48076;-74
2022/04/23 02:51:42;;;;;;;;;25.50;20.50;;;;;13.34;58.99;99547.38;4968177;28;45513;-74
2022/04/23 02:54:07;;;;;;;;;22.50;18.75;;;;;13.31;59.04;99548.47;4972176;28;47093;-74
2022/04/23 02:56:33;;;;;;;;;19.75;17.00;;;;;13.28;58.65;99542.56;4972818;28;45567;-74
2022/04/23 02:58:59;;;;;;;;;25.25;25.00;;;;;13.24;58.74;99538.47;4972747;28;45567;-74
2022/04/23 03:01:26;;;;;;;;;21.75;19.75;;;;;13.20;59.53;99532.53;4974223;28;45426;-74
2022/04/23 03:03:54;;;;;;;;;23.50;21.25;;;;;13.15;59.55;99531.19;4972475;28;45522;-74
2022/04/23 03:06:20;;;;;;;;;23.75;20.50;;;;;13.17;59.55;99538.03;4965689;28;45891;-74
2022/04/23 03:08:46;;;;;;;;;18.50;16.25;;;;;13.13;58.72;99535.72;4972325;28;45513;-74
2022/04/23 03:11:11;;;;;;;;;28.75;22.50;;;;;13.13;59.05;99533.09;4972887;28;45307;-74
2022/04/23 03:13:36;;;;;;;;;26.00;21.50;;;;;13.12;59.17;99534.91;4974185;28;58846;-74
2022/04/23 03:16:02;;;;;;;;;23.50;21.00;;;;;13.09;59.18;99531.63;4972208;28;49434;-74
2022/04/23 03:18:28;;;;;;;;;26.00;20.75;;;;;13.06;59.54;99522.16;4972502;28;47059;-74
2022/04/23 03:20:53;;;;;;;;;25.25;20.50;;;;;13.04;59.75;99529.31;4972393;28;45512;-74
2022/04/23 03:23:19;;;;;;;;;24.75;22.75;;;;;13.00;59.66;99519.97;4963041;28;45884;-74
2022/04/23 03:25:45;;;;;;;;;25.50;22.75;;;;;12.97;59.41;99522.81;4973929;28;45336;-74
2022/04/23 03:28:13;;;;;;;;;28.75;21.50;;;;;12.91;60.12;99515.34;4973201;28;45325;-74
2022/04/23 03:30:39;;;;;;;;;24.25;21.75;;;;;12.87;60.28;99506.81;4971393;28;45409;-74
2022/04/23 03:33:04;;;;;;;;;23.50;22.00;;;;;12.87;59.68;99514.72;4971998;28;45307;-74
2022/04/23 03:35:30;;;;;;;;;24.25;22.25;;;;;12.83;60.17;99505.34;4972043;28;45556;-74
2022/04/23 03:37:58;;;;;;;;;19.50;17.00;;;;;12.82;60.29;99511.56;4971792;28;45224;-74
2022/04/23 03:40:23;;;;;;;;;24.00;22.75;;;;;12.79;60.19;99511.81;4974315;28;45481;-74
2022/04/23 03:42:49;;;;;;;;;23.00;21.00;;;;;12.78;60.50;99504.81;4969970;28;45528;-74
2022/04/23 03:45:18;;;;;;;;;29.25;22.50;;;;;12.78;60.58;99510.09;4971951;28;45407;-74
2022/04/23 03:47:48;;;;;;;;;23.00;21.00;;;;;12.77;60.54;99516.31;4972143;28;45359;-74
2022/04/23 03:50:14;;;;;;;;;27.00;23.25;;;;;12.75;60.73;99515.59;4970894;28;45616;-74
2022/04/23 03:52:40;;;;;;;;;23.00;22.00;;;;;12.72;60.46;99500.84;4973498;28;45986;-74
2022/04/23 03:55:06;;;;;;;;;26.75;22.50;;;;;12.70;60.75;99497.47;4972568;28;45401;-74
2022/04/23 03:57:32;;;;;;;;;27.00;21.00;;;;;12.65;60.22;99501.41;4970382;28;45415;-74
2022/04/23 03:59:58;;;;;;;;;24.25;22.00;;;;;12.58;60.95;99498.38;4972071;28;45463;-74
2022/04/23 04:02:23;;;;;;;;;22.00;20.25;;;;;12.58;60.50;99501.00;4971968;28;49569;-74
2022/04/23 04:04:49;;;;;;;;;19.50;19.50;;;;;12.54;60.94;99495.09;4972183;28;56139;-74
2022/04/23 04:07:18;;;;;;;;;25.25;21.50;;;;;12.52;61.36;99498.78;4973459;28;45379;-74
2022/04/23 04:09:43;;;;;;;;;26.75;21.75;;;;;12.50;61.07;99495.41;4967957;28;45570;-74
2022/04/23 04:12:10;;;;;;;;;28.25;22.25;;;;;12.49;61.11;99504.28;4971793;28;46104;-74
2022/04/23 04:14:36;;;;;;;;;22.75;17.25;;;;;12.46;61.34;99504.47;4971712;28;47637;-74
2022/04/23 04:17:06;;;;;;;;;23.25;21.00;;;;;12.43;61.93;99502.91;4971913;28;45231;-74
2022/04/23 04:19:33;;;;;;;;;21.00;20.00;;;;;12.41;62.06;99491.63;4973958;28;45280;-75
2022/04/23 04:21:59;;;;;;;;;27.00;21.50;;;;;12.40;61.41;99489.09;4971549;28;45436;-74
2022/04/23 04:24:25;;;;;;;;;27.75;21.00;;;;;12.39;61.11;99484.78;4971752;28;45315;-74
2022/04/23 04:26:52;;;;;;;;;23.25;21.75;;;;;12.35;61.71;99486.78;4967935;28;45599;-75
2022/04/23 04:29:18;;;;;;;;;26.25;23.00;;;;;12.32;61.73;99492.28;4972470;28;45436;-74
2022/04/23 04:31:49;;;;;;;;;26.00;23.00;;;;;12.30;62.16;99490.69;4972232;28;46838;-74
2022/04/23 04:34:29;;;;;;;;;27.50;24.00;;;;;12.28;62.25;99496.09;4972809;28;45975;-74
2022/04/23 04:37:11;;;;;;;;;22.75;21.50;;;;;12.26;61.80;99490.91;4971526;28;45608;-74
2022/04/23 04:39:39;;;;;;;;;23.25;21.25;;;;;12.24;62.29;99484.06;4971767;28;45481;-74
2022/04/23 04:42:08;;;;;;;;;25.00;21.25;;;;;12.22;62.11;99481.56;4971421;28;45437;-74
2022/04/23 04:44:34;;;;;;;;;29.50;22.25;;;;;12.21;62.52;99486.91;4970600;28;45820;-74
2022/04/23 04:47:00;;;;;;;;;28.25;22.75;;;;;12.19;62.00;99476.47;4971535;28;45549;-74
2022/04/23 04:49:25;;;;;;;;;23.50;21.75;;;;;12.17;62.13;99480.19;4973140;28;45504;-74
2022/04/23 04:51:52;;;;;;;;;31.00;23.75;;;;;12.14;63.08;99483.84;4971284;28;45806;-74
2022/04/23 04:54:18;;;;;;;;;28.50;24.25;;;;;12.14;63.04;99491.75;4971383;28;45992;-74
2022/04/23 04:56:44;;;;;;;;;25.50;21.00;;;;;12.14;62.79;99483.84;4971028;28;45294;-74
2022/04/23 04:59:10;;;;;;;;;24.50;20.25;;;;;12.14;62.28;99494.41;4971611;28;45348;-74
2022/04/23 05:01:35;;;;;;;;;21.00;21.00;;;;;12.14;62.53;99493.56;4968383;28;45331;-74
2022/04/23 05:04:01;;;;;;;;;21.50;19.75;;;;;12.13;62.57;99487.44;4969253;28;45612;-74
2022/04/23 05:06:26;;;;;;;;;29.00;24.00;;;;;12.16;62.58;99494.28;4970917;28;51245;-74
2022/04/23 05:08:51;;;;;;;;;27.50;22.25;;;;;12.16;62.75;99481.97;4969185;28;45497;-74
2022/04/23 05:11:16;;;;;;;;;30.00;22.00;;;;;12.20;62.95;99483.44;4969623;28;45473;-74
2022/04/23 05:13:42;;;;;;;;;28.75;27.00;;;;;12.25;62.93;99475.22;4972763;28;45339;-74
2022/04/23 05:16:08;;;;;;;;;29.50;23.25;;;;;12.28;62.81;99486.38;4971863;28;45505;-74
2022/04/23 05:18:34;;;;;;;;;22.25;21.00;;;;;12.35;63.06;99484.16;4968834;28;45464;-74
2022/04/23 05:21:00;;;;;;;;;31.75;24.00;;;;;12.42;62.62;99489.81;4970923;28;45450;-74
2022/04/23 05:23:25;;;;;;;;;27.50;22.50;;;;;12.45;62.83;99477.28;4971105;28;45434;-74
2022/04/23 05:25:51;;;;;;;;;30.00;24.25;;;;;12.51;62.35;99476.00;4971424;28;45339;-73
2022/04/23 05:28:16;;;;;;;;;29.75;24.75;;;;;12.57;62.29;99488.75;4972737;28;45583;-74
2022/04/23 05:30:42;;;;;;;;;29.00;22.00;;;;;12.59;61.87;99476.31;4969312;28;45370;-74
2022/04/23 05:33:08;;;;;;;;;27.50;23.00;;;;;12.68;62.04;99477.44;4970424;28;45913;-74
2022/04/23 05:35:34;;;;;;;;;26.25;23.00;;;;;12.73;62.27;99478.78;4967820;28;45450;-74
2022/04/23 05:37:59;;;;;;;;;24.00;22.50;;;;;12.80;62.46;99469.50;4970703;28;45276;-74
2022/04/23 05:40:25;;;;;;;;;28.00;24.75;;;;;12.89;61.76;99469.78;4972435;28;46005;-74
2022/04/23 05:42:50;;;;;;;;;27.75;24.00;;;;;12.93;61.75;99465.97;4970529;28;45431;-74
2022/04/23 05:45:15;;;;;;;;;27.75;23.25;;;;;12.99;61.67;99462.88;4971144;28;45317;-74
2022/04/23 05:47:41;;;;;;;;;26.75;22.00;;;;;13.06;61.39;99459.69;4969113;28;45585;-73
2022/04/23 05:50:08;;;;;;;;;25.75;23.50;;;;;13.12;61.69;99450.47;4969542;28;46099;-74
2022/04/23 05:52:40;;;;;;;;;27.00;22.00;;;;;13.21;61.17;99457.75;4965032;28;45513;-74
2022/04/23 05:55:06;;;;;;;;;29.25;24.50;;;;;13.28;60.95;99455.50;4972010;28;45247;-74
2022/04/23 05:57:32;;;;;;;;;24.75;22.50;;;;;13.37;61.21;99453.97;4970166;28;47651;-74
2022/04/23 05:59:58;;;;;;;;;21.50;21.50;;;;;13.44;60.70;99456.03;4970026;28;45452;-74
2022/04/23 06:02:23;;;;;;;;;30.75;23.25;;;;;13.46;60.64;99461.19;4970016;28;45486;-75
2022/04/23 06:04:49;;;;;;;;;31.50;27.25;;;;;13.50;60.66;99471.41;4971156;28;45365;-74
2022/04/23 06:07:15;;;;;;;;;30.50;22.00;;;;;13.57;60.58;99484.97;4972091;28;45460;-75
2022/04/23 06:09:41;;;;;;;;;25.00;22.75;;;;;13.64;60.73;99499.41;4969212;28;45383;-75
2022/04/23 06:12:06;;;;;;;;;22.50;20.75;;;;;13.71;60.67;99497.97;4961224;28;45536;-75
2022/04/23 06:14:32;;;;;;;;;31.00;26.50;;;;;13.77;60.50;99488.75;4970429;28;45330;-75
2022/04/23 06:16:57;;;;;;;;;26.75;23.00;;;;;13.82;60.59;99483.97;4970191;28;45565;-75
2022/04/23 06:19:23;;;;;;;;;34.25;26.00;;;;;13.94;60.46;99500.66;4972334;28;46231;-72
2022/04/23 06:21:48;;;;;;;;;27.25;22.00;;;;;14.09;60.57;99508.28;4977445;28;45501;-75
2022/04/23 06:24:13;;;;;;;;;27.25;24.75;;;;;14.27;60.69;99497.22;4977782;28;45394;-74
2022/04/23 06:26:39;;;;;;;;;25.75;23.00;;;;;14.44;60.00;99494.09;4977183;28;46491;-74
2022/04/23 06:29:04;;;;;;;;;32.50;27.75;;;;;14.60;59.58;99489.31;4972295;28;45334;-74
2022/04/23 06:31:29;;;;;;;;;28.50;25.25;;;;;14.73;59.31;99496.28;4974206;28;45416;-75
2022/04/23 06:33:55;;;;;;;;;30.00;28.25;;;;;14.86;58.91;99499.63;4973108;28;45676;-75
2022/04/23 06:36:20;;;;;;;;;26.50;23.00;;;;;14.98;58.64;99497.78;4973202;28;45351;-72
2022/04/23 06:38:46;;;;;;;;;28.50;25.25;;;;;15.12;58.47;99492.22;4972384;28;45764;-76
2022/04/23 06:41:15;;;;;;;;;27.25;24.25;;;;;15.27;58.40;99495.41;4970512;28;45656;-75
2022/04/23 06:43:40;;;;;;;;;23.75;21.50;;;;;15.34;57.73;99484.19;4978206;28;45554;-75
2022/04/23 06:46:06;;;;;;;;;28.25;24.25;;;;;15.51;57.59;99484.63;4966560;28;45556;-75
2022/04/23 06:48:31;;;;;;;;;32.00;27.75;;;;;15.51;57.40;99466.91;4966156;28;46775;-75
2022/04/23 06:50:57;;;;;;;;;30.00;26.00;;;;;15.57;57.14;99477.00;4967377;28;47522;-73
2022/04/23 06:53:22;;;;;;;;;25.00;23.00;;;;;15.69;57.06;99495.50;4977231;28;46595;-73
2022/04/23 06:55:48;;;;;;;;;22.25;21.00;;;;;15.71;56.97;99490.91;5038797;28;47488;-73
2022/04/23 06:58:15;;;;;;;;;27.33;21.33;;;;;15.73;56.64;99489.81;4962112;28;51112;-74
2022/04/23 07:00:41;;;;;;;;;25.25;23.25;;;;;15.75;56.68;99487.88;4962901;28;45599;-74
2022/04/23 07:03:07;;;;;;;;;30.25;27.75;;;;;15.71;56.60;99490.91;4969923;28;45722;-74
2022/04/23 07:05:33;;;;;;;;;27.50;25.00;;;;;15.68;56.58;99486.72;4964459;28;46679;-73
2022/04/23 07:08:01;;;;;;;;;26.25;25.50;;;;;15.71;56.75;99482.97;4967311;28;46364;-73
2022/04/23 07:10:29;;;;;;;;;27.00;25.25;;;;;15.67;56.49;99485.03;4968978;28;45367;-73
2022/04/23 07:12:55;;;;;;;;;29.50;22.50;;;;;15.62;56.60;99476.63;4971953;28;45346;-73
2022/04/23 07:15:21;;;;;;;;;26.75;25.75;;;;;15.57;56.81;99477.00;4963781;28;45576;-73
2022/04/23 07:17:47;;;;;;;;;14.75;12.00;;;;;15.50;56.64;99480.25;4958530;28;47229;-73
2022/04/23 07:20:14;;;;;;;;;28.75;24.50;;;;;15.40;56.90;99477.56;4960762;28;45368;-73
2022/04/23 07:22:39;;;;;;;;;24.25;22.75;;;;;15.33;57.09;99476.38;4968993;28;45500;-73
2022/04/23 07:25:08;;;;;;;;;29.50;22.25;;;;;15.34;56.87;99480.69;4960312;28;45773;-73
2022/04/23 07:27:33;;;;;;;;;25.25;23.50;;;;;15.36;57.22;99476.97;4964002;28;45529;-73
2022/04/23 07:29:59;;;;;;;;;28.00;24.00;;;;;15.45;57.31;99479.81;4963655;28;45359;-75
2022/04/23 07:32:25;;;;;;;;;26.75;22.25;;;;;15.60;57.71;99478.53;4963968;28;45560;-74
2022/04/23 07:37:35;;;;;;;;;29.50;26.00;;;;;16.19;56.58;99480.63;4961094;28;45413;-74
2022/04/23 07:40:10;;;;;;;;;31.50;27.75;;;;;16.56;56.56;99480.06;4957512;28;45303;-73
2022/04/23 07:42:36;;;;;;;;;21.75;19.00;;;;;16.89;56.15;99476.25;4967863;28;45466;-73
2022/04/23 07:45:02;;;;;;;;;25.50;22.00;;;;;17.15;55.20;99477.41;4957119;28;45919;-73
2022/04/23 07:47:28;;;;;;;;;32.25;23.25;;;;;17.34;54.52;99468.63;4959145;28;45460;-73
2022/04/23 07:49:53;;;;;;;;;29.75;27.25;;;;;17.45;53.93;99475.59;4970784;28;45405;-74
2022/04/23 07:52:19;;;;;;;;;24.75;23.50;;;;;17.56;54.29;99475.47;4965311;28;45402;-74
2022/04/23 07:54:44;;;;;;;;;27.50;26.50;;;;;17.60;54.03;99478.69;4958196;28;45435;-74
2022/04/23 07:57:11;;;;;;;;;27.75;25.00;;;;;17.59;53.66;99472.53;4964991;28;46802;-73
2022/04/23 07:59:41;;;;;;;;;29.00;24.50;;;;;17.64;53.84;99475.56;4970617;28;45824;-74
2022/04/23 08:02:08;;;;;;;;;29.00;27.00;;;;;17.70;53.57;99463.56;4962210;28;45414;-73
2022/04/23 08:04:33;;;;;;;;;27.25;26.00;;;;;17.86;53.43;99471.81;4970154;28;45546;-74
2022/04/23 08:06:58;;;;;;;;;31.25;29.00;;;;;18.09;53.08;99463.50;4965522;28;45357;-74
2022/04/23 08:09:24;;;;;;;;;30.50;25.75;;;;;18.28;52.83;99459.94;4959460;28;45376;-73
2022/04/23 08:11:49;;;;;;;;;34.00;28.25;;;;;18.43;52.83;99458.47;4956525;28;45754;-74
2022/04/23 08:14:14;;;;;;;;;30.50;26.75;;;;;18.53;52.33;99461.91;4961906;28;45465;-73
2022/04/23 08:16:41;;;;;;;;;32.50;27.75;;;;;18.52;51.97;99452.25;4971461;28;46905;-74
2022/04/23 08:19:08;;;;;;;;;30.25;27.75;;;;;18.49;52.01;99452.56;4968758;28;45458;-74
2022/04/23 08:21:34;;;;;;;;;33.25;24.50;;;;;18.42;51.98;99446.13;4950763;28;46188;-74
2022/04/23 08:23:59;;;;;;;;;32.75;28.00;;;;;18.37;52.16;99445.75;4951342;28;45627;-74
2022/04/23 08:26:25;;;;;;;;;32.00;29.75;;;;;18.33;52.14;99450.53;4962205;28;49308;-74
2022/04/23 08:31:34;;;;;;;;;71.50;56.00;;;;;18.28;52.45;99444.81;4958866;28;45583;-75
2022/04/23 08:34:00;;;;;;;;;33.75;31.25;;;;;18.26;52.49;99449.44;4958330;28;56042;-75
2022/04/23 08:36:27;;;;;;;;;25.75;25.00;;;;;18.21;51.94;99447.19;4964785;28;45809;-76
2022/04/23 08:38:56;;;;;;;;;25.25;23.00;;;;;18.12;52.05;99445.44;4973977;28;47442;-76
2022/04/23 08:41:28;;;;;;;;;34.50;29.25;;;;;18.05;52.54;99449.66;4981638;28;45481;-74
2022/04/23 08:43:55;;;;;;;;;29.75;28.50;;;;;18.12;53.16;99442.78;4974979;28;45479;-76
2022/04/23 08:46:22;;;;;;;;;29.75;26.75;;;;;18.28;53.05;99441.31;4964862;28;45437;-76
2022/04/23 08:48:50;;;;;;;;;35.00;29.50;;;;;18.43;52.43;99446.00;4964959;28;45393;-74
2022/04/23 08:51:20;;;;;;;;;30.25;28.25;;;;;18.76;52.39;99435.78;4954591;28;45533;-74
2022/04/23 08:53:47;;;;;;;;;29.25;25.25;;;;;19.14;51.99;99444.47;4954691;28;47714;-74
2022/04/23 08:56:13;;;;;;;;;30.00;28.75;;;;;19.48;51.89;99448.09;4958615;28;46410;-75
2022/04/23 08:58:39;;;;;;;;;30.00;26.50;;;;;19.74;51.24;99447.34;4965964;28;45414;-76
2022/04/23 09:01:05;;;;;;;;;30.00;27.50;;;;;19.96;50.99;99440.63;4959399;28;45547;-74
2022/04/23 09:03:30;;;;;;;;;34.25;27.00;;;;;20.18;50.61;99442.75;4963109;28;45311;-75
2022/04/23 09:05:56;;;;;;;;;36.00;29.25;;;;;20.47;49.97;99452.28;4971496;28;47633;-80
2022/04/23 09:08:21;;;;;;;;;32.00;28.25;;;;;20.69;49.85;99441.00;4967260;28;55448;-74
2022/04/23 09:10:54;;;;;;;;;27.50;24.00;;;;;20.77;49.49;99445.50;4963880;28;45307;-75
2022/04/23 09:13:32;;;;;;;;;26.25;25.50;;;;;20.75;49.13;99440.34;4968913;28;45499;-72
2022/04/23 09:24:45;;;;;;;;;29.25;25.25;;;;;22.25;47.46;99436.53;4968025;28;45457;-72
2022/04/23 09:27:11;;;;;;;;;24.00;23.50;;;;;23.01;46.61;99438.50;4964822;28;45690;-76
2022/04/23 09:29:36;;;;;;;;;20.25;20.25;;;;;23.40;45.76;99438.41;4967352;28;45319;-70
2022/04/23 09:32:19;;;;;;;;;29.75;26.00;;;;;23.76;45.64;99434.28;4967617;28;45312;-72
2022/04/23 09:34:44;;;;;;;;;23.25;21.75;;;;;24.09;44.10;99432.91;4965954;28;45322;-73
2022/04/23 09:37:09;;;;;;;;;25.25;23.75;;;;;24.40;44.56;99437.28;4962436;28;46271;-73
2022/04/23 09:39:38;;;;;;;;;26.25;25.00;;;;;24.66;43.36;99426.88;4966818;28;45438;-73
2022/04/23 09:42:19;;;;;;;;;22.50;20.50;;;;;24.80;43.10;99435.94;4963093;28;45456;-73
2022/04/23 09:44:46;;;;;;;;;28.00;23.75;;;;;24.94;42.77;99435.03;4959397;28;45737;-73
2022/04/23 09:47:32;;;;;;;;;23.75;21.75;;;;;25.19;42.45;99432.84;4959832;28;45527;-73
2022/04/23 09:49:58;;;;;;;;;22.50;20.00;;;;;25.50;42.69;99434.38;4962661;28;45646;-73
2022/04/23 09:52:31;;;;;;;;;21.25;20.75;;;;;25.72;41.45;99435.16;5008058;28;45477;-73
2022/04/23 09:54:59;;;;;;;;;25.00;21.75;;;;;25.75;41.59;99427.56;4965859;28;45493;-71
2022/04/23 09:57:25;;;;;;;;;17.25;16.25;;;;;25.88;40.96;99432.19;4966188;28;45441;-73
2022/04/23 09:59:54;;;;;;;;;24.00;21.50;;;;;26.09;40.60;99423.22;4958295;28;45618;-72
2022/04/23 10:02:19;;;;;;;;;20.25;20.00;;;;;26.23;40.49;99424.97;4965290;28;45358;-80
2022/04/23 10:04:46;;;;;;;;;21.50;17.75;;;;;26.34;40.05;99431.66;4960853;28;45490;-71
2022/04/23 10:07:17;;;;;;;;;19.25;18.50;;;;;26.31;39.56;99425.81;4972716;28;46372;-70
2022/04/23 10:09:45;;;;;;;;;22.75;21.00;;;;;26.15;39.51;99433.19;4965312;28;45860;-74
2022/04/23 10:12:16;;;;;;;;;26.00;21.25;;;;;26.03;39.61;99432.09;4960546;28;45353;-71
2022/04/23 10:14:56;;;;;;;;;19.25;17.25;;;;;25.91;39.61;99425.59;4964411;28;45552;-71
2022/04/23 10:17:24;;;;;;;;;24.25;22.25;;;;;25.79;40.03;99430.72;4970414;28;46186;-75
2022/04/23 10:19:50;;;;;;;;;19.25;18.75;;;;;25.61;39.74;99428.44;4968208;28;45460;-74
2022/04/23 10:22:21;;;;;;;;;17.50;14.25;;;;;25.45;39.46;99434.13;4971486;28;45334;-73
2022/04/23 10:25:24;;;;;;;;;26.25;18.75;;;;;25.31;40.08;99426.94;4964365;28;45517;-68
2022/04/23 10:27:56;;;;;;;;;20.75;19.25;;;;;25.30;39.78;99423.44;4960124;28;46067;-68
2022/04/23 10:30:21;;;;;;;;;15.00;14.75;;;;;25.33;39.83;99419.53;4963948;28;45408;-69
2022/04/23 10:32:47;;;;;;;;;19.00;16.25;;;;;25.40;40.02;99426.63;4960585;28;46870;-68
2022/04/23 10:35:19;;;;;;;;;18.50;17.00;;;;;25.52;39.15;99413.47;4958368;28;45524;-68
2022/04/23 10:37:49;;;;;;;;;17.00;15.50;;;;;25.44;38.69;99424.38;4978359;28;46974;-68
2022/04/23 10:40:19;;;;;;;;;17.25;15.50;;;;;25.37;39.25;99418.97;4957279;28;47113;-68
2022/04/23 10:43:12;;;;;;;;;16.25;14.25;;;;;25.41;39.26;99414.84;4964818;28;45408;-68
2022/04/23 10:45:40;;;;;;;;;15.75;13.50;;;;;25.67;38.91;99408.84;4965638;28;45533;-69
2022/04/23 10:48:23;;;;;;;;;13.50;11.25;;;;;25.95;38.54;99418.81;4967241;28;47196;-68
2022/04/23 10:51:19;;;;;;;;;11.00;9.25;;;;;26.04;38.38;99409.53;4966252;28;45821;-68
2022/04/23 10:53:46;;;;;;;;;11.25;10.00;;;;;26.20;38.10;99411.88;4968133;28;45386;-68
2022/04/23 10:56:17;;;;;;;;;13.00;9.75;;;;;26.20;38.08;99403.81;4967021;28;45582;-68
2022/04/23 10:58:42;;;;;;;;;14.00;12.75;;;;;26.06;37.57;99406.66;4968545;28;46299;-69
2022/04/23 11:01:21;;;;;;;;;14.25;12.50;;;;;26.01;38.31;99408.06;4962144;28;45525;-68
2022/04/23 11:03:56;;;;;;;;;12.25;10.50;;;;;26.07;37.53;99405.63;4961325;28;45517;-69
2022/04/23 11:12:19;;;;;;;;;13.75;11.25;;;;;26.63;36.56;99400.94;4956504;28;45572;-70
2022/04/23 11:14:48;;;;;;;;;7.00;7.00;;;;;26.67;36.53;99404.88;4971261;28;45517;-68
2022/04/23 11:17:44;;;;;;;;;14.00;11.00;;;;;26.45;36.97;99406.88;4956596;28;45522;-68
2022/04/23 11:20:10;;;;;;;;;27.50;24.50;;;;;26.05;37.13;99396.88;4956199;28;46314;-68
2022/04/23 11:22:37;;;;;;;;;12.25;10.00;;;;;25.93;37.19;99400.13;4970803;28;45445;-69
2022/04/23 11:25:02;;;;;;;;;8.00;7.75;;;;;25.90;36.89;99402.41;4960493;28;45260;-68
2022/04/23 11:27:33;;;;;;;;;12.50;10.25;;;;;25.98;37.01;99399.56;4959904;28;45428;-68
2022/04/23 11:29:59;;;;;;;;;11.00;10.00;;;;;26.17;36.74;99395.31;4965302;28;47320;-69
2022/04/23 11:32:29;;;;;;;;;8.50;7.75;;;;;26.27;36.38;99395.78;4956972;28;45653;-68
2022/04/23 11:34:59;;;;;;;;;9.75;8.00;;;;;26.34;36.88;99385.03;4971522;28;45419;-68
2022/04/23 11:37:35;;;;;;;;;11.75;9.50;;;;;26.42;36.74;99393.81;4959173;28;45452;-69